Clutier, Iowa
Current Conditions -  °F | °C
As of 5:35 AM on Saturday 25 Oct 2014 (Local Time) from KVTI Reporting Station
Moderate Fog Moderate Fog  
Wind Chill: 48°   Ceiling: 100
Heat Index: 48°   Visibility: 0.25mi
Dew Point: 47°   Wind: 0mph
Humidity: 97%   Direction: NA
Pressure: 29.99"   Gusts: NA
Location:  42.08°N, 92.4°W
Report Text: KVTI 251035Z AUTO 00000KT 1/4SM FG BKN001 09/08 A2999 RMK AO2 T00870082
Loading
Personal Weather Stations






























Interactive Weather Map
Tropical Storm Tracking
New forecast layout! Learn more

10-Day Weather Forecast

Advertisements
Track Severe Weather on mobile